createdAt,value
2018-08-30T00:50:21.365Z,1.80
2018-08-30T00:55:24.698Z,1.60
2018-08-30T02:32:30.856Z,1.80
2018-08-30T02:37:34.195Z,1.53
2018-08-30T02:42:38.293Z,1.50
2018-08-30T03:50:58.090Z,1.30
2018-08-30T03:56:01.433Z,2.00
2018-08-30T04:35:35.295Z,1.27
2018-08-30T04:40:38.629Z,1.17
2018-08-30T04:45:42.731Z,1.57
2018-08-30T04:50:46.059Z,1.60
2018-08-30T05:01:35.672Z,1.70
2018-08-30T05:06:38.983Z,1.67
2018-08-30T05:11:42.318Z,2.10
2018-08-30T05:16:45.647Z,2.13
2018-08-30T05:21:49.736Z,1.90
2018-08-30T05:26:53.070Z,2.30
2018-08-30T05:31:56.400Z,2.60
2018-08-30T05:37:00.499Z,3.03
2018-08-30T05:42:03.830Z,2.70
2018-08-30T05:47:07.164Z,2.83
2018-08-30T05:52:11.258Z,2.87
2018-08-30T05:57:14.586Z,2.43
2018-08-30T06:02:17.918Z,2.50
2018-08-30T06:07:22.064Z,2.30
2018-08-30T06:12:25.363Z,2.40
2018-08-30T06:17:29.477Z,2.57
2018-08-30T06:22:32.806Z,1.63
2018-08-30T06:27:36.900Z,1.67
2018-08-30T07:01:25.978Z,2.23
2018-08-30T07:06:30.078Z,2.17
2018-08-30T07:11:33.419Z,2.30
2018-08-30T08:02:38.315Z,3.43
2018-08-30T08:07:41.646Z,3.37
2018-08-30T08:12:45.034Z,2.73
2018-08-30T09:03:50.387Z,3.00
2018-08-30T09:08:53.714Z,3.10
2018-08-30T09:13:57.818Z,2.83
2018-08-30T10:05:01.578Z,3.47
2018-08-30T10:10:04.923Z,3.37
2018-08-30T10:15:08.250Z,3.83
2018-08-30T11:00:53.953Z,3.70
2018-08-30T11:05:57.317Z,4.20
2018-08-30T11:11:00.630Z,4.13
2018-08-30T12:02:05.499Z,4.63
2018-08-30T12:07:08.841Z,3.13
2018-08-30T12:12:12.950Z,3.87
2018-08-30T13:03:17.574Z,5.13
2018-08-30T13:08:20.923Z,4.27
2018-08-30T13:13:24.283Z,4.37
2018-08-30T14:04:28.378Z,4.30
2018-08-30T14:09:32.190Z,3.70
2018-08-30T14:14:35.513Z,3.87
2018-08-30T14:48:24.722Z,3.80
2018-08-30T14:53:28.918Z,2.87
2018-08-30T14:58:33.015Z,3.47
2018-08-30T15:32:22.375Z,3.60
2018-08-30T15:37:25.710Z,3.57
2018-08-30T15:42:29.046Z,3.33
2018-08-30T15:47:32.395Z,3.47
2018-08-30T15:52:35.755Z,3.60
2018-08-30T15:57:39.095Z,3.47
2018-08-30T16:02:42.450Z,4.87
2018-08-30T16:07:45.781Z,3.60
2018-08-30T16:12:49.121Z,4.03
2018-08-30T16:17:52.457Z,4.63
2018-08-30T16:22:55.821Z,6.33
2018-08-30T16:27:59.164Z,6.87
2018-08-30T16:33:02.579Z,5.20
2018-08-30T16:38:05.966Z,5.20
2018-08-30T16:43:09.291Z,4.83
2018-08-30T16:48:12.635Z,5.27
2018-08-30T16:53:16.811Z,4.80
2018-08-30T16:58:20.104Z,4.83
2018-08-30T17:03:23.442Z,4.10
2018-08-30T17:08:27.213Z,4.70
2018-08-30T17:13:30.583Z,5.00
2018-08-30T17:18:33.914Z,4.83
2018-08-30T17:23:37.279Z,4.70
2018-08-30T17:28:40.627Z,4.87
2018-08-30T17:33:44.196Z,5.33
2018-08-30T17:38:47.687Z,4.50
2018-08-30T17:43:51.837Z,4.30
2018-08-30T17:48:55.939Z,4.63
2018-08-30T17:53:59.299Z,4.90
2018-08-30T17:59:02.656Z,4.43
2018-08-30T18:04:05.983Z,3.93
2018-08-30T18:09:09.321Z,5.83
2018-08-30T18:14:13.422Z,4.80
2018-08-30T18:19:16.742Z,5.37
2018-08-30T18:24:20.137Z,4.60
2018-08-30T18:29:23.432Z,5.07
2018-08-30T18:34:26.764Z,5.50
2018-08-30T18:39:30.103Z,4.50
2018-08-30T18:44:33.584Z,5.67
2018-08-30T18:49:37.171Z,4.17
2018-08-30T18:54:41.111Z,5.23
2018-08-30T18:59:46.569Z,4.57
2018-08-30T19:04:50.909Z,4.73
2018-08-30T19:09:56.001Z,5.93
2018-08-30T19:14:59.676Z,5.60
2018-08-30T19:20:03.250Z,5.37
2018-08-30T19:25:06.864Z,5.33
2018-08-30T19:30:11.316Z,5.67
2018-08-30T19:35:17.126Z,6.90
2018-08-30T19:40:22.471Z,5.00
2018-08-30T19:45:26.841Z,5.20
2018-08-30T19:50:30.477Z,6.27
2018-08-30T19:55:33.989Z,5.73
2018-08-30T20:00:37.596Z,6.77
2018-08-30T20:05:46.078Z,6.87
2018-08-30T20:16:18.935Z,7.50
2018-08-30T20:21:22.279Z,6.07
2018-08-30T20:26:26.382Z,6.00
2018-08-30T20:31:29.718Z,7.20
2018-08-30T20:36:33.819Z,7.97
2018-08-30T20:41:37.168Z,6.00
2018-08-30T20:46:46.815Z,6.03
2018-08-30T20:51:50.122Z,4.93
2018-08-30T20:56:53.447Z,5.67
2018-08-30T21:01:57.577Z,5.90
2018-08-30T21:07:01.674Z,6.37
2018-08-30T21:12:05.011Z,5.90
2018-08-30T21:17:08.344Z,5.90
2018-08-30T21:22:12.451Z,6.10
2018-08-30T21:27:15.781Z,5.97
2018-08-30T21:32:19.891Z,5.40
2018-08-30T21:37:23.223Z,5.43
2018-08-30T21:42:26.565Z,5.73
2018-08-30T21:47:29.898Z,5.13
2018-08-30T21:52:33.229Z,5.97
2018-08-30T21:57:36.555Z,5.50
2018-08-30T22:02:39.960Z,5.77
2018-08-30T22:07:43.267Z,6.07
2018-08-30T22:12:46.625Z,5.73
2018-08-30T22:17:49.962Z,5.97
2018-08-30T22:22:53.289Z,6.37
2018-08-30T22:27:56.626Z,5.40
2018-08-30T22:32:59.950Z,5.70
2018-08-30T22:38:03.273Z,5.67
2018-08-30T22:43:07.383Z,6.97
2018-08-30T22:48:10.730Z,5.33
2018-08-30T22:53:14.058Z,5.97
2018-08-30T22:58:17.381Z,6.87
2018-08-30T23:03:20.698Z,7.30
2018-08-30T23:08:24.018Z,5.90
2018-08-30T23:13:27.495Z,5.50
